sensor_id;sensor_type;location;lat;lon;timestamp;temperature;humidity
48752;DHT22;34544;48.836;9.174;2023-11-21T00:00:15;8.70;99.90
48752;DHT22;34544;48.836;9.174;2023-11-21T00:02:43;8.70;99.90
48752;DHT22;34544;48.836;9.174;2023-11-21T00:05:13;8.70;99.90
48752;DHT22;34544;48.836;9.174;2023-11-21T00:07:42;8.80;99.90
48752;DHT22;34544;48.836;9.174;2023-11-21T00:10:09;8.80;99.90
48752;DHT22;34544;48.836;9.174;2023-11-21T00:12:35;8.80;99.90
48752;DHT22;34544;48.836;9.174;2023-11-21T00:15:01;8.70;99.90
48752;DHT22;34544;48.836;9.174;2023-11-21T00:17:28;8.70;99.90
48752;DHT22;34544;48.836;9.174;2023-11-21T00:19:54;8.70;99.90
48752;DHT22;34544;48.836;9.174;2023-11-21T00:22:20;8.70;99.90
48752;DHT22;34544;48.836;9.174;2023-11-21T00:24:46;8.70;99.90
48752;DHT22;34544;48.836;9.174;2023-11-21T00:27:13;8.70;99.90
48752;DHT22;34544;48.836;9.174;2023-11-21T00:29:39;8.70;99.90
48752;DHT22;34544;48.836;9.174;2023-11-21T00:32:06;8.80;99.90
48752;DHT22;34544;48.836;9.174;2023-11-21T00:34:32;8.70;99.90
48752;DHT22;34544;48.836;9.174;2023-11-21T00:36:58;8.80;99.90
48752;DHT22;34544;48.836;9.174;2023-11-21T00:39:25;8.80;99.90
48752;DHT22;34544;48.836;9.174;2023-11-21T00:41:52;8.80;99.90
48752;DHT22;34544;48.836;9.174;2023-11-21T00:44:18;8.80;99.90
48752;DHT22;34544;48.836;9.174;2023-11-21T00:46:44;8.80;99.90
48752;DHT22;34544;48.836;9.174;2023-11-21T00:49:09;8.90;99.90
48752;DHT22;34544;48.836;9.174;2023-11-21T00:51:35;8.90;99.90
48752;DHT22;34544;48.836;9.174;2023-11-21T00:54:01;8.90;99.90
48752;DHT22;34544;48.836;9.174;2023-11-21T00:56:28;8.90;99.90
48752;DHT22;34544;48.836;9.174;2023-11-21T00:58:54;8.90;99.90
48752;DHT22;34544;48.836;9.174;2023-11-21T01:01:20;8.90;99.90
48752;DHT22;34544;48.836;9.174;2023-11-21T01:03:47;8.90;99.90
48752;DHT22;34544;48.836;9.174;2023-11-21T01:06:14;9.00;99.90
48752;DHT22;34544;48.836;9.174;2023-11-21T01:08:41;9.00;99.90
48752;DHT22;34544;48.836;9.174;2023-11-21T01:11:09;9.00;99.90
48752;DHT22;34544;48.836;9.174;2023-11-21T01:13:39;8.90;99.90
48752;DHT22;34544;48.836;9.174;2023-11-21T01:16:05;9.00;99.90
48752;DHT22;34544;48.836;9.174;2023-11-21T01:18:37;9.00;99.90
48752;DHT22;34544;48.836;9.174;2023-11-21T01:21:03;9.00;99.90
48752;DHT22;34544;48.836;9.174;2023-11-21T01:23:30;9.00;99.90
48752;DHT22;34544;48.836;9.174;2023-11-21T01:25:57;9.00;99.90
48752;DHT22;34544;48.836;9.174;2023-11-21T01:28:23;9.00;99.90
48752;DHT22;34544;48.836;9.174;2023-11-21T01:30:49;9.00;99.90
48752;DHT22;34544;48.836;9.174;2023-11-21T01:33:15;9.00;99.90
48752;DHT22;34544;48.836;9.174;2023-11-21T01:35:45;9.00;99.90
48752;DHT22;34544;48.836;9.174;2023-11-21T01:38:12;9.00;99.90
48752;DHT22;34544;48.836;9.174;2023-11-21T01:40:38;8.90;99.90
48752;DHT22;34544;48.836;9.174;2023-11-21T01:43:04;8.90;99.90
48752;DHT22;34544;48.836;9.174;2023-11-21T01:45:30;9.00;99.90
48752;DHT22;34544;48.836;9.174;2023-11-21T01:48:00;9.00;99.90
48752;DHT22;34544;48.836;9.174;2023-11-21T01:50:26;8.90;99.90
48752;DHT22;34544;48.836;9.174;2023-11-21T01:52:53;8.90;99.90
48752;DHT22;34544;48.836;9.174;2023-11-21T01:55:20;9.00;99.90
48752;DHT22;34544;48.836;9.174;2023-11-21T01:57:46;9.00;99.90
48752;DHT22;34544;48.836;9.174;2023-11-21T02:00:13;9.00;99.90
48752;DHT22;34544;48.836;9.174;2023-11-21T02:02:48;9.00;99.90
48752;DHT22;34544;48.836;9.174;2023-11-21T02:05:14;9.00;99.90
48752;DHT22;34544;48.836;9.174;2023-11-21T02:07:41;9.00;99.90
48752;DHT22;34544;48.836;9.174;2023-11-21T02:10:08;9.00;99.90
48752;DHT22;34544;48.836;9.174;2023-11-21T02:12:35;9.00;99.90
48752;DHT22;34544;48.836;9.174;2023-11-21T02:15:03;9.00;99.90
48752;DHT22;34544;48.836;9.174;2023-11-21T02:17:31;9.00;99.90
48752;DHT22;34544;48.836;9.174;2023-11-21T02:19:58;9.00;99.90
48752;DHT22;34544;48.836;9.174;2023-11-21T02:22:26;9.00;99.90
48752;DHT22;34544;48.836;9.174;2023-11-21T02:24:56;9.00;99.90
48752;DHT22;34544;48.836;9.174;2023-11-21T02:27:24;9.10;99.90
48752;DHT22;34544;48.836;9.174;2023-11-21T02:29:50;9.10;99.90
48752;DHT22;34544;48.836;9.174;2023-11-21T02:32:16;9.10;99.90
48752;DHT22;34544;48.836;9.174;2023-11-21T02:34:44;9.10;99.90
48752;DHT22;34544;48.836;9.174;2023-11-21T02:37:10;9.10;99.90
48752;DHT22;34544;48.836;9.174;2023-11-21T02:39:36;9.10;99.90
48752;DHT22;34544;48.836;9.174;2023-11-21T02:42:01;9.10;99.90
48752;DHT22;34544;48.836;9.174;2023-11-21T02:44:27;9.10;99.90
48752;DHT22;34544;48.836;9.174;2023-11-21T02:46:53;9.10;99.90
48752;DHT22;34544;48.836;9.174;2023-11-21T02:49:19;9.10;99.90
48752;DHT22;34544;48.836;9.174;2023-11-21T02:51:44;9.20;99.90
48752;DHT22;34544;48.836;9.174;2023-11-21T02:54:11;9.20;99.90
48752;DHT22;34544;48.836;9.174;2023-11-21T02:56:37;9.10;99.90
48752;DHT22;34544;48.836;9.174;2023-11-21T02:59:03;9.10;99.90
48752;DHT22;34544;48.836;9.174;2023-11-21T03:01:29;9.10;99.90
48752;DHT22;34544;48.836;9.174;2023-11-21T03:03:55;9.10;99.90
48752;DHT22;34544;48.836;9.174;2023-11-21T03:06:21;9.20;99.90
48752;DHT22;34544;48.836;9.174;2023-11-21T03:08:47;9.10;99.90
48752;DHT22;34544;48.836;9.174;2023-11-21T03:11:13;9.10;99.90
48752;DHT22;34544;48.836;9.174;2023-11-21T03:13:40;9.10;99.90
48752;DHT22;34544;48.836;9.174;2023-11-21T03:16:09;9.10;99.90
48752;DHT22;34544;48.836;9.174;2023-11-21T03:18:39;9.00;99.90
48752;DHT22;34544;48.836;9.174;2023-11-21T03:21:06;9.00;99.90
48752;DHT22;34544;48.836;9.174;2023-11-21T03:23:34;9.00;99.90
48752;DHT22;34544;48.836;9.174;2023-11-21T03:26:00;9.00;99.90
48752;DHT22;34544;48.836;9.174;2023-11-21T03:28:26;9.00;99.90
48752;DHT22;34544;48.836;9.174;2023-11-21T03:30:56;9.00;99.90
48752;DHT22;34544;48.836;9.174;2023-11-21T03:33:23;9.00;99.90
48752;DHT22;34544;48.836;9.174;2023-11-21T03:35:49;9.00;99.90
48752;DHT22;34544;48.836;9.174;2023-11-21T03:38:15;9.00;99.90
48752;DHT22;34544;48.836;9.174;2023-11-21T03:40:41;9.00;99.90
48752;DHT22;34544;48.836;9.174;2023-11-21T03:43:07;9.00;99.90
48752;DHT22;34544;48.836;9.174;2023-11-21T03:45:33;9.00;99.90
48752;DHT22;34544;48.836;9.174;2023-11-21T03:47:59;9.00;99.90
48752;DHT22;34544;48.836;9.174;2023-11-21T03:50:29;9.00;99.90
48752;DHT22;34544;48.836;9.174;2023-11-21T03:52:54;9.00;99.90
48752;DHT22;34544;48.836;9.174;2023-11-21T03:55:21;9.00;99.90
48752;DHT22;34544;48.836;9.174;2023-11-21T03:57:47;9.00;99.90
48752;DHT22;34544;48.836;9.174;2023-11-21T04:00:12;9.00;99.90
48752;DHT22;34544;48.836;9.174;2023-11-21T04:02:38;9.10;99.90
48752;DHT22;34544;48.836;9.174;2023-11-21T04:05:05;9.10;99.90
48752;DHT22;34544;48.836;9.174;2023-11-21T04:07:32;9.10;99.90
48752;DHT22;34544;48.836;9.174;2023-11-21T04:09:59;9.10;99.90
48752;DHT22;34544;48.836;9.174;2023-11-21T04:12:25;9.10;99.90
48752;DHT22;34544;48.836;9.174;2023-11-21T04:14:51;9.10;99.90
48752;DHT22;34544;48.836;9.174;2023-11-21T04:17:18;9.10;99.90
48752;DHT22;34544;48.836;9.174;2023-11-21T04:19:45;9.00;99.90
48752;DHT22;34544;48.836;9.174;2023-11-21T04:22:12;9.00;99.90
48752;DHT22;34544;48.836;9.174;2023-11-21T04:24:38;9.00;99.90
48752;DHT22;34544;48.836;9.174;2023-11-21T04:27:04;9.00;99.90
48752;DHT22;34544;48.836;9.174;2023-11-21T04:29:29;9.00;99.90
48752;DHT22;34544;48.836;9.174;2023-11-21T04:31:55;9.00;99.90
48752;DHT22;34544;48.836;9.174;2023-11-21T04:34:21;9.00;99.90
48752;DHT22;34544;48.836;9.174;2023-11-21T04:36:47;9.00;99.90
48752;DHT22;34544;48.836;9.174;2023-11-21T04:39:13;9.00;99.90
48752;DHT22;34544;48.836;9.174;2023-11-21T04:41:38;8.90;99.90
48752;DHT22;34544;48.836;9.174;2023-11-21T04:44:08;8.80;99.90
48752;DHT22;34544;48.836;9.174;2023-11-21T04:46:33;8.80;99.90
48752;DHT22;34544;48.836;9.174;2023-11-21T04:48:59;8.70;99.90
48752;DHT22;34544;48.836;9.174;2023-11-21T04:51:25;8.70;99.90
48752;DHT22;34544;48.836;9.174;2023-11-21T04:53:50;8.70;99.90
48752;DHT22;34544;48.836;9.174;2023-11-21T04:56:16;8.60;99.90
48752;DHT22;34544;48.836;9.174;2023-11-21T04:58:41;8.70;99.90
48752;DHT22;34544;48.836;9.174;2023-11-21T05:01:08;8.60;99.90
48752;DHT22;34544;48.836;9.174;2023-11-21T05:03:34;8.60;99.90
48752;DHT22;34544;48.836;9.174;2023-11-21T05:06:00;8.60;99.90
48752;DHT22;34544;48.836;9.174;2023-11-21T05:08:25;8.60;99.90
48752;DHT22;34544;48.836;9.174;2023-11-21T05:10:52;8.50;99.90
48752;DHT22;34544;48.836;9.174;2023-11-21T05:13:17;8.50;99.90
48752;DHT22;34544;48.836;9.174;2023-11-21T05:15:44;8.50;99.90
48752;DHT22;34544;48.836;9.174;2023-11-21T05:18:11;8.50;99.90
48752;DHT22;34544;48.836;9.174;2023-11-21T05:20:36;8.50;99.90
48752;DHT22;34544;48.836;9.174;2023-11-21T05:23:05;8.40;99.90
48752;DHT22;34544;48.836;9.174;2023-11-21T05:25:30;8.50;99.90
48752;DHT22;34544;48.836;9.174;2023-11-21T05:27:57;8.50;99.90
48752;DHT22;34544;48.836;9.174;2023-11-21T05:30:27;8.50;99.90
48752;DHT22;34544;48.836;9.174;2023-11-21T05:32:53;8.50;99.90
48752;DHT22;34544;48.836;9.174;2023-11-21T05:35:19;8.50;99.90
48752;DHT22;34544;48.836;9.174;2023-11-21T05:37:47;8.50;99.90
48752;DHT22;34544;48.836;9.174;2023-11-21T05:40:13;8.50;99.90
48752;DHT22;34544;48.836;9.174;2023-11-21T05:42:40;8.50;99.90
48752;DHT22;34544;48.836;9.174;2023-11-21T05:45:07;8.50;99.90
48752;DHT22;34544;48.836;9.174;2023-11-21T05:47:46;8.50;99.90
48752;DHT22;34544;48.836;9.174;2023-11-21T05:50:13;8.50;99.90
48752;DHT22;34544;48.836;9.174;2023-11-21T05:52:47;8.50;99.90
48752;DHT22;34544;48.836;9.174;2023-11-21T05:55:13;8.50;99.90
48752;DHT22;34544;48.836;9.174;2023-11-21T05:57:40;8.40;99.90
48752;DHT22;34544;48.836;9.174;2023-11-21T06:00:11;8.40;99.90
48752;DHT22;34544;48.836;9.174;2023-11-21T06:02:46;8.40;99.90
48752;DHT22;34544;48.836;9.174;2023-11-21T06:05:12;8.40;99.90
48752;DHT22;34544;48.836;9.174;2023-11-21T06:07:38;8.40;99.90
48752;DHT22;34544;48.836;9.174;2023-11-21T06:10:06;8.40;99.90
48752;DHT22;34544;48.836;9.174;2023-11-21T06:12:35;8.40;99.90
48752;DHT22;34544;48.836;9.174;2023-11-21T06:15:05;8.40;99.90
48752;DHT22;34544;48.836;9.174;2023-11-21T06:17:32;8.40;99.90
48752;DHT22;34544;48.836;9.174;2023-11-21T06:19:59;8.40;99.90
48752;DHT22;34544;48.836;9.174;2023-11-21T06:22:24;8.30;99.90
48752;DHT22;34544;48.836;9.174;2023-11-21T06:24:50;8.30;99.90
48752;DHT22;34544;48.836;9.174;2023-11-21T06:27:16;8.30;99.90
48752;DHT22;34544;48.836;9.174;2023-11-21T06:29:41;8.30;99.90
48752;DHT22;34544;48.836;9.174;2023-11-21T06:32:07;8.30;99.90
48752;DHT22;34544;48.836;9.174;2023-11-21T06:34:34;8.30;99.90
48752;DHT22;34544;48.836;9.174;2023-11-21T06:36:59;8.40;99.90
48752;DHT22;34544;48.836;9.174;2023-11-21T06:39:25;8.40;99.90
48752;DHT22;34544;48.836;9.174;2023-11-21T06:41:51;8.40;99.90
48752;DHT22;34544;48.836;9.174;2023-11-21T06:44:17;8.40;99.90
48752;DHT22;34544;48.836;9.174;2023-11-21T06:46:42;8.50;99.90
48752;DHT22;34544;48.836;9.174;2023-11-21T06:49:08;8.50;99.90
48752;DHT22;34544;48.836;9.174;2023-11-21T06:51:34;8.50;99.90
48752;DHT22;34544;48.836;9.174;2023-11-21T06:54:00;8.50;99.90
48752;DHT22;34544;48.836;9.174;2023-11-21T06:56:25;8.60;99.90
48752;DHT22;34544;48.836;9.174;2023-11-21T06:58:51;8.60;99.90
48752;DHT22;34544;48.836;9.174;2023-11-21T07:01:19;8.60;99.90
48752;DHT22;34544;48.836;9.174;2023-11-21T07:03:45;8.60;99.90
48752;DHT22;34544;48.836;9.174;2023-11-21T07:06:11;8.60;99.90
48752;DHT22;34544;48.836;9.174;2023-11-21T07:08:37;8.70;99.90
48752;DHT22;34544;48.836;9.174;2023-11-21T07:11:04;8.70;99.90
48752;DHT22;34544;48.836;9.174;2023-11-21T07:13:30;8.70;99.90
48752;DHT22;34544;48.836;9.174;2023-11-21T07:15:58;8.70;99.90
48752;DHT22;34544;48.836;9.174;2023-11-21T07:18:24;8.70;99.90
48752;DHT22;34544;48.836;9.174;2023-11-21T07:20:50;8.80;99.90
48752;DHT22;34544;48.836;9.174;2023-11-21T07:23:17;8.80;99.90
48752;DHT22;34544;48.836;9.174;2023-11-21T07:25:43;8.80;99.90
48752;DHT22;34544;48.836;9.174;2023-11-21T07:28:09;8.80;99.90
48752;DHT22;34544;48.836;9.174;2023-11-21T07:30:34;8.80;99.90
48752;DHT22;34544;48.836;9.174;2023-11-21T07:33:00;8.80;99.90
48752;DHT22;34544;48.836;9.174;2023-11-21T07:35:26;8.80;99.90
48752;DHT22;34544;48.836;9.174;2023-11-21T07:37:52;8.90;99.90
48752;DHT22;34544;48.836;9.174;2023-11-21T07:40:18;8.90;99.90
48752;DHT22;34544;48.836;9.174;2023-11-21T07:42:43;8.90;99.90
48752;DHT22;34544;48.836;9.174;2023-11-21T07:45:10;9.00;99.90
48752;DHT22;34544;48.836;9.174;2023-11-21T07:47:36;9.00;99.90
48752;DHT22;34544;48.836;9.174;2023-11-21T07:50:05;9.10;99.90
48752;DHT22;34544;48.836;9.174;2023-11-21T07:52:32;9.20;99.90
48752;DHT22;34544;48.836;9.174;2023-11-21T07:54:59;9.20;99.90
48752;DHT22;34544;48.836;9.174;2023-11-21T07:57:24;9.20;99.90
48752;DHT22;34544;48.836;9.174;2023-11-21T07:59:51;9.30;99.90
48752;DHT22;34544;48.836;9.174;2023-11-21T08:02:19;9.30;99.90
48752;DHT22;34544;48.836;9.174;2023-11-21T08:04:44;9.30;99.90
48752;DHT22;34544;48.836;9.174;2023-11-21T08:07:10;9.40;99.90
48752;DHT22;34544;48.836;9.174;2023-11-21T08:09:36;9.40;99.90
48752;DHT22;34544;48.836;9.174;2023-11-21T08:12:02;9.40;99.90
48752;DHT22;34544;48.836;9.174;2023-11-21T08:14:28;9.40;99.90
48752;DHT22;34544;48.836;9.174;2023-11-21T08:16:54;9.40;99.90
48752;DHT22;34544;48.836;9.174;2023-11-21T08:19:23;9.50;99.90
48752;DHT22;34544;48.836;9.174;2023-11-21T08:21:50;9.60;99.90
48752;DHT22;34544;48.836;9.174;2023-11-21T08:24:16;9.60;99.90
48752;DHT22;34544;48.836;9.174;2023-11-21T08:26:42;9.70;99.90
48752;DHT22;34544;48.836;9.174;2023-11-21T08:29:08;9.80;99.90
48752;DHT22;34544;48.836;9.174;2023-11-21T08:31:34;10.10;99.90
48752;DHT22;34544;48.836;9.174;2023-11-21T08:36:28;10.20;99.90
48752;DHT22;34544;48.836;9.174;2023-11-21T08:38:54;10.30;99.90
48752;DHT22;34544;48.836;9.174;2023-11-21T08:41:20;10.40;99.90
48752;DHT22;34544;48.836;9.174;2023-11-21T08:43:50;10.50;99.90
48752;DHT22;34544;48.836;9.174;2023-11-21T08:46:16;10.50;99.90
48752;DHT22;34544;48.836;9.174;2023-11-21T08:48:44;10.50;99.90
48752;DHT22;34544;48.836;9.174;2023-11-21T08:51:10;10.50;99.90
48752;DHT22;34544;48.836;9.174;2023-11-21T08:53:37;10.60;99.90
48752;DHT22;34544;48.836;9.174;2023-11-21T08:56:04;10.70;99.90
48752;DHT22;34544;48.836;9.174;2023-11-21T08:58:31;10.80;99.90
48752;DHT22;34544;48.836;9.174;2023-11-21T09:00:57;10.80;99.90
48752;DHT22;34544;48.836;9.174;2023-11-21T09:03:23;10.90;99.90
48752;DHT22;34544;48.836;9.174;2023-11-21T09:05:49;10.90;99.90
48752;DHT22;34544;48.836;9.174;2023-11-21T09:08:15;10.90;99.90
48752;DHT22;34544;48.836;9.174;2023-11-21T09:10:40;10.90;99.90
48752;DHT22;34544;48.836;9.174;2023-11-21T09:13:08;10.90;99.90
48752;DHT22;34544;48.836;9.174;2023-11-21T09:15:34;10.90;99.90
48752;DHT22;34544;48.836;9.174;2023-11-21T09:18:00;10.90;99.90
48752;DHT22;34544;48.836;9.174;2023-11-21T09:20:27;10.90;99.90
48752;DHT22;34544;48.836;9.174;2023-11-21T09:22:52;11.00;99.90
48752;DHT22;34544;48.836;9.174;2023-11-21T09:25:19;11.00;99.90
48752;DHT22;34544;48.836;9.174;2023-11-21T09:27:46;11.10;99.90
48752;DHT22;34544;48.836;9.174;2023-11-21T09:30:12;11.20;99.90
48752;DHT22;34544;48.836;9.174;2023-11-21T09:32:40;11.20;99.90
48752;DHT22;34544;48.836;9.174;2023-11-21T09:35:06;11.20;99.90
48752;DHT22;34544;48.836;9.174;2023-11-21T09:37:35;11.20;99.90
48752;DHT22;34544;48.836;9.174;2023-11-21T09:40:04;11.20;99.90
48752;DHT22;34544;48.836;9.174;2023-11-21T09:42:54;11.10;99.90
48752;DHT22;34544;48.836;9.174;2023-11-21T09:45:28;11.10;99.90
48752;DHT22;34544;48.836;9.174;2023-11-21T09:47:55;11.00;99.90
48752;DHT22;34544;48.836;9.174;2023-11-21T09:50:22;10.90;99.90
48752;DHT22;34544;48.836;9.174;2023-11-21T09:53:21;10.90;99.90
48752;DHT22;34544;48.836;9.174;2023-11-21T09:55:48;10.80;99.90
48752;DHT22;34544;48.836;9.174;2023-11-21T09:58:16;10.70;99.90
48752;DHT22;34544;48.836;9.174;2023-11-21T10:00:50;10.70;99.90
48752;DHT22;34544;48.836;9.174;2023-11-21T10:03:17;10.70;99.90
48752;DHT22;34544;48.836;9.174;2023-11-21T10:05:44;10.60;99.90
48752;DHT22;34544;48.836;9.174;2023-11-21T10:08:12;10.50;99.90
48752;DHT22;34544;48.836;9.174;2023-11-21T10:10:42;10.50;99.90
48752;DHT22;34544;48.836;9.174;2023-11-21T10:13:12;10.50;99.90
48752;DHT22;34544;48.836;9.174;2023-11-21T10:15:38;10.50;99.90
48752;DHT22;34544;48.836;9.174;2023-11-21T10:18:05;10.60;99.90
48752;DHT22;34544;48.836;9.174;2023-11-21T10:20:32;10.50;99.90
48752;DHT22;34544;48.836;9.174;2023-11-21T10:23:03;10.50;99.90
48752;DHT22;34544;48.836;9.174;2023-11-21T10:25:30;10.50;99.90
48752;DHT22;34544;48.836;9.174;2023-11-21T10:28:01;10.50;99.90
48752;DHT22;34544;48.836;9.174;2023-11-21T10:30:35;10.50;99.90
48752;DHT22;34544;48.836;9.174;2023-11-21T10:33:05;10.40;99.90
48752;DHT22;34544;48.836;9.174;2023-11-21T10:35:47;10.40;99.90
48752;DHT22;34544;48.836;9.174;2023-11-21T10:38:19;10.40;99.90
48752;DHT22;34544;48.836;9.174;2023-11-21T10:40:46;10.50;99.90
48752;DHT22;34544;48.836;9.174;2023-11-21T10:43:13;10.50;99.90
48752;DHT22;34544;48.836;9.174;2023-11-21T10:45:42;10.60;99.90
48752;DHT22;34544;48.836;9.174;2023-11-21T10:48:10;10.70;99.90
48752;DHT22;34544;48.836;9.174;2023-11-21T10:50:43;10.90;99.90
48752;DHT22;34544;48.836;9.174;2023-11-21T10:53:09;11.10;99.90
48752;DHT22;34544;48.836;9.174;2023-11-21T10:55:35;11.20;99.90
48752;DHT22;34544;48.836;9.174;2023-11-21T10:58:02;11.30;99.90
48752;DHT22;34544;48.836;9.174;2023-11-21T11:00:31;11.40;99.90
48752;DHT22;34544;48.836;9.174;2023-11-21T11:02:56;11.40;99.90
48752;DHT22;34544;48.836;9.174;2023-11-21T11:05:27;11.40;99.90
48752;DHT22;34544;48.836;9.174;2023-11-21T11:08:04;11.30;99.90
48752;DHT22;34544;48.836;9.174;2023-11-21T11:10:31;11.20;99.90
48752;DHT22;34544;48.836;9.174;2023-11-21T11:12:58;11.30;99.90
48752;DHT22;34544;48.836;9.174;2023-11-21T11:15:25;11.20;99.90
48752;DHT22;34544;48.836;9.174;2023-11-21T11:17:51;11.30;99.90
48752;DHT22;34544;48.836;9.174;2023-11-21T11:20:17;11.40;99.90
48752;DHT22;34544;48.836;9.174;2023-11-21T11:23:21;11.50;99.90
48752;DHT22;34544;48.836;9.174;2023-11-21T11:32:03;12.00;99.90
48752;DHT22;34544;48.836;9.174;2023-11-21T11:34:35;12.10;99.90
48752;DHT22;34544;48.836;9.174;2023-11-21T11:37:05;12.10;99.90
48752;DHT22;34544;48.836;9.174;2023-11-21T11:39:42;12.00;99.90
48752;DHT22;34544;48.836;9.174;2023-11-21T11:42:13;12.00;99.90
48752;DHT22;34544;48.836;9.174;2023-11-21T11:50:08;12.10;99.90
48752;DHT22;34544;48.836;9.174;2023-11-21T11:55:08;12.00;99.90
48752;DHT22;34544;48.836;9.174;2023-11-21T11:57:36;11.80;99.90
48752;DHT22;34544;48.836;9.174;2023-11-21T12:00:33;11.80;99.90
48752;DHT22;34544;48.836;9.174;2023-11-21T12:03:04;11.60;99.90
48752;DHT22;34544;48.836;9.174;2023-11-21T12:05:35;11.60;99.90
48752;DHT22;34544;48.836;9.174;2023-11-21T12:08:05;11.50;99.90
48752;DHT22;34544;48.836;9.174;2023-11-21T12:10:36;11.50;99.90
48752;DHT22;34544;48.836;9.174;2023-11-21T12:13:03;11.40;99.90
48752;DHT22;34544;48.836;9.174;2023-11-21T12:15:30;11.50;99.90
48752;DHT22;34544;48.836;9.174;2023-11-21T12:17:57;11.50;99.90
48752;DHT22;34544;48.836;9.174;2023-11-21T12:20:25;11.60;99.90
48752;DHT22;34544;48.836;9.174;2023-11-21T12:22:52;11.70;99.90
48752;DHT22;34544;48.836;9.174;2023-11-21T12:25:23;11.80;99.90
48752;DHT22;34544;48.836;9.174;2023-11-21T12:27:50;11.90;99.90
48752;DHT22;34544;48.836;9.174;2023-11-21T12:30:18;12.00;99.90
48752;DHT22;34544;48.836;9.174;2023-11-21T12:32:48;12.10;99.90
48752;DHT22;34544;48.836;9.174;2023-11-21T12:35:14;12.20;99.90
48752;DHT22;34544;48.836;9.174;2023-11-21T12:37:41;12.20;99.90
48752;DHT22;34544;48.836;9.174;2023-11-21T12:40:10;12.20;99.90
48752;DHT22;34544;48.836;9.174;2023-11-21T12:42:47;12.20;99.90
48752;DHT22;34544;48.836;9.174;2023-11-21T12:47:50;12.50;99.90
48752;DHT22;34544;48.836;9.174;2023-11-21T12:50:22;12.70;99.90
48752;DHT22;34544;48.836;9.174;2023-11-21T12:52:50;12.80;99.90
48752;DHT22;34544;48.836;9.174;2023-11-21T12:55:17;12.80;99.90
48752;DHT22;34544;48.836;9.174;2023-11-21T12:57:44;12.80;99.90
48752;DHT22;34544;48.836;9.174;2023-11-21T13:00:13;12.70;99.90
48752;DHT22;34544;48.836;9.174;2023-11-21T13:02:55;12.60;99.90
48752;DHT22;34544;48.836;9.174;2023-11-21T13:05:36;12.40;99.90
48752;DHT22;34544;48.836;9.174;2023-11-21T13:08:04;12.20;99.90
48752;DHT22;34544;48.836;9.174;2023-11-21T13:13:03;11.50;99.90
48752;DHT22;34544;48.836;9.174;2023-11-21T13:15:31;11.30;99.90
48752;DHT22;34544;48.836;9.174;2023-11-21T13:17:58;11.20;99.90
48752;DHT22;34544;48.836;9.174;2023-11-21T13:20:27;11.00;99.90
48752;DHT22;34544;48.836;9.174;2023-11-21T13:22:54;10.90;99.90
48752;DHT22;34544;48.836;9.174;2023-11-21T13:25:23;10.80;99.90
48752;DHT22;34544;48.836;9.174;2023-11-21T13:27:49;10.70;99.90
48752;DHT22;34544;48.836;9.174;2023-11-21T13:30:16;10.60;99.90
48752;DHT22;34544;48.836;9.174;2023-11-21T13:32:43;10.50;99.90
48752;DHT22;34544;48.836;9.174;2023-11-21T13:35:10;10.40;99.90
48752;DHT22;34544;48.836;9.174;2023-11-21T13:37:50;10.30;99.90
48752;DHT22;34544;48.836;9.174;2023-11-21T13:40:20;10.30;99.90
48752;DHT22;34544;48.836;9.174;2023-11-21T13:42:49;10.30;99.90
48752;DHT22;34544;48.836;9.174;2023-11-21T13:45:21;10.20;99.90
48752;DHT22;34544;48.836;9.174;2023-11-21T13:47:49;10.30;99.90
48752;DHT22;34544;48.836;9.174;2023-11-21T13:50:18;10.30;99.90
48752;DHT22;34544;48.836;9.174;2023-11-21T13:52:49;10.30;99.90
48752;DHT22;34544;48.836;9.174;2023-11-21T13:55:16;10.30;99.90
48752;DHT22;34544;48.836;9.174;2023-11-21T13:57:42;10.30;99.90
48752;DHT22;34544;48.836;9.174;2023-11-21T14:00:11;10.30;99.90
48752;DHT22;34544;48.836;9.174;2023-11-21T14:02:57;10.30;99.90
48752;DHT22;34544;48.836;9.174;2023-11-21T14:05:29;10.30;99.90
48752;DHT22;34544;48.836;9.174;2023-11-21T14:07:56;10.30;99.90
48752;DHT22;34544;48.836;9.174;2023-11-21T14:10:27;10.30;99.90
48752;DHT22;34544;48.836;9.174;2023-11-21T14:13:03;10.20;99.90
48752;DHT22;34544;48.836;9.174;2023-11-21T14:15:30;10.20;99.90
48752;DHT22;34544;48.836;9.174;2023-11-21T14:17:56;10.10;99.90
48752;DHT22;34544;48.836;9.174;2023-11-21T14:20:22;10.00;99.90
48752;DHT22;34544;48.836;9.174;2023-11-21T14:22:48;10.00;99.90
48752;DHT22;34544;48.836;9.174;2023-11-21T14:25:14;10.00;99.90
48752;DHT22;34544;48.836;9.174;2023-11-21T14:27:40;9.90;99.90
48752;DHT22;34544;48.836;9.174;2023-11-21T14:30:06;9.90;99.90
48752;DHT22;34544;48.836;9.174;2023-11-21T14:32:32;9.90;99.90
48752;DHT22;34544;48.836;9.174;2023-11-21T14:34:58;9.90;99.90
48752;DHT22;34544;48.836;9.174;2023-11-21T14:37:24;9.90;99.90
48752;DHT22;34544;48.836;9.174;2023-11-21T14:39:49;9.90;99.90
48752;DHT22;34544;48.836;9.174;2023-11-21T14:42:15;9.90;99.90
48752;DHT22;34544;48.836;9.174;2023-11-21T14:44:41;9.90;99.90
48752;DHT22;34544;48.836;9.174;2023-11-21T14:47:08;9.90;99.90
48752;DHT22;34544;48.836;9.174;2023-11-21T14:49:43;10.00;99.90
48752;DHT22;34544;48.836;9.174;2023-11-21T14:52:25;10.00;99.90
48752;DHT22;34544;48.836;9.174;2023-11-21T14:55:01;10.00;99.90
48752;DHT22;34544;48.836;9.174;2023-11-21T14:57:47;10.00;99.90
48752;DHT22;34544;48.836;9.174;2023-11-21T15:00:17;10.00;99.90
48752;DHT22;34544;48.836;9.174;2023-11-21T15:03:02;10.00;99.90
48752;DHT22;34544;48.836;9.174;2023-11-21T15:05:28;10.00;99.90
48752;DHT22;34544;48.836;9.174;2023-11-21T15:07:55;10.00;99.90
48752;DHT22;34544;48.836;9.174;2023-11-21T15:10:24;10.00;99.90
48752;DHT22;34544;48.836;9.174;2023-11-21T15:13:11;9.90;99.90
48752;DHT22;34544;48.836;9.174;2023-11-21T15:15:36;9.90;99.90
48752;DHT22;34544;48.836;9.174;2023-11-21T15:18:03;9.90;99.90
48752;DHT22;34544;48.836;9.174;2023-11-21T15:20:28;9.90;99.90
48752;DHT22;34544;48.836;9.174;2023-11-21T15:22:55;9.80;99.90
48752;DHT22;34544;48.836;9.174;2023-11-21T15:25:21;9.80;99.90
48752;DHT22;34544;48.836;9.174;2023-11-21T15:27:47;9.70;99.90
48752;DHT22;34544;48.836;9.174;2023-11-21T15:30:16;9.70;99.90
48752;DHT22;34544;48.836;9.174;2023-11-21T15:32:44;9.70;99.90
48752;DHT22;34544;48.836;9.174;2023-11-21T15:35:10;9.60;99.90
48752;DHT22;34544;48.836;9.174;2023-11-21T15:37:40;9.60;99.90
48752;DHT22;34544;48.836;9.174;2023-11-21T15:40:07;9.60;99.90
48752;DHT22;34544;48.836;9.174;2023-11-21T15:42:34;9.60;99.90
48752;DHT22;34544;48.836;9.174;2023-11-21T15:45:03;9.60;99.90
48752;DHT22;34544;48.836;9.174;2023-11-21T15:47:33;9.50;99.90
48752;DHT22;34544;48.836;9.174;2023-11-21T15:49:58;9.50;99.90
48752;DHT22;34544;48.836;9.174;2023-11-21T15:52:24;9.50;99.90
48752;DHT22;34544;48.836;9.174;2023-11-21T15:54:50;9.40;99.90
48752;DHT22;34544;48.836;9.174;2023-11-21T15:57:16;9.30;99.90
48752;DHT22;34544;48.836;9.174;2023-11-21T15:59:44;9.30;99.90
48752;DHT22;34544;48.836;9.174;2023-11-21T16:02:11;9.30;99.90
48752;DHT22;34544;48.836;9.174;2023-11-21T16:04:37;9.30;99.90